Time;durP1;ratioP1;P1;durP2;ratioP2;P2;SDS_P1;SDS_P2;PMS_P1;PMS_P2;Temp;Humidity;BMP_temperature;BMP_pressure;BME280_temperature;BME280_humidity;BME280_pressure;Samples;Min_cycle;Max_cycle;Signal;HPM_P1;HPM_P2
2022/02/27 00:01:52;;;;;;;31.90;22.02;;;20.70;96.80;;;;;;4163371;28;20691;-63
2022/02/27 00:04:03;;;;;;;34.85;20.45;;;20.80;96.80;;;;;;4163561;28;20045;-63
2022/02/27 00:06:12;;;;;;;30.23;19.25;;;20.80;96.60;;;;;;4163213;28;20041;-63
2022/02/27 00:08:16;;;;;;;25.10;18.45;;;20.80;96.60;;;;;;4163342;28;20124;-61
2022/02/27 00:10:21;;;;;;;22.95;18.10;;;20.70;96.70;;;;;;4162767;28;20741;-61
2022/02/27 00:12:30;;;;;;;23.75;18.05;;;20.60;96.90;;;;;;4163431;28;20085;-62
2022/02/27 00:14:35;;;;;;;28.05;17.35;;;20.50;97.20;;;;;;4162640;28;20124;-62
2022/02/27 00:16:39;;;;;;;24.27;17.65;;;20.50;97.40;;;;;;4163864;28;20537;-62
2022/02/27 00:18:44;;;;;;;27.52;18.25;;;20.70;96.80;;;;;;4162661;28;20532;-61
2022/02/27 00:20:50;;;;;;;41.80;19.27;;;20.80;96.60;;;;;;4163985;28;20136;-64
2022/02/27 00:22:56;;;;;;;26.50;18.42;;;20.80;96.70;;;;;;4163958;28;20057;-64
2022/02/27 00:25:04;;;;;;;24.40;18.85;;;20.90;96.70;;;;;;4161321;28;20061;-62
2022/02/27 00:27:09;;;;;;;25.33;18.55;;;20.90;96.50;;;;;;4163716;28;20054;-63
2022/02/27 00:29:13;;;;;;;24.85;19.38;;;21.00;96.50;;;;;;4161262;28;20120;-64
2022/02/27 00:31:20;;;;;;;25.65;18.90;;;21.00;96.40;;;;;;4148980;28;20053;-63
2022/02/27 00:33:24;;;;;;;29.60;19.23;;;21.00;96.40;;;;;;4154700;28;20041;-64
2022/02/27 00:35:29;;;;;;;22.75;18.02;;;21.10;96.30;;;;;;4163131;28;20034;-64
2022/02/27 00:37:34;;;;;;;23.40;17.80;;;21.00;96.40;;;;;;4162266;28;20080;-63
2022/02/27 00:39:39;;;;;;;23.95;17.85;;;21.00;96.50;;;;;;4158106;28;20041;-65
2022/02/27 00:41:44;;;;;;;24.48;18.00;;;21.10;96.20;;;;;;4156816;28;20100;-66
2022/02/27 00:43:53;;;;;;;22.40;16.90;;;21.20;96.00;;;;;;4159364;28;20057;-65
2022/02/27 00:46:01;;;;;;;20.83;16.08;;;21.20;95.80;;;;;;4156877;28;21643;-66
2022/02/27 00:48:06;;;;;;;22.13;16.38;;;21.10;95.80;;;;;;4161963;28;20720;-66
2022/02/27 00:50:14;;;;;;;19.15;15.77;;;21.10;95.90;;;;;;4161488;28;20046;-62
2022/02/27 00:52:22;;;;;;;22.65;16.25;;;21.10;95.80;;;;;;4161189;28;20159;-63
2022/02/27 00:54:28;;;;;;;20.48;14.80;;;21.20;95.80;;;;;;4160044;28;20104;-63
2022/02/27 00:56:37;;;;;;;20.13;16.65;;;21.20;95.80;;;;;;4161785;28;20072;-64
2022/02/27 00:58:46;;;;;;;23.05;16.83;;;21.10;95.90;;;;;;4177112;28;20135;-63
2022/02/27 01:00:51;;;;;;;23.77;17.40;;;21.10;96.10;;;;;;4162181;28;20108;-63
2022/02/27 01:02:59;;;;;;;22.48;15.90;;;21.20;95.80;;;;;;4157413;28;20048;-63
2022/02/27 01:05:04;;;;;;;20.15;14.70;;;21.30;95.60;;;;;;4158240;28;20057;-64
2022/02/27 01:07:10;;;;;;;18.52;13.85;;;21.40;95.30;;;;;;4159104;28;20138;-63
2022/02/27 01:09:21;;;;;;;18.02;13.13;;;21.50;95.00;;;;;;4158128;28;21314;-64
2022/02/27 01:11:27;;;;;;;16.98;12.18;;;21.60;94.90;;;;;;4157652;28;20128;-64
2022/02/27 01:13:31;;;;;;;16.92;12.10;;;21.60;94.80;;;;;;4159609;28;20554;-64
2022/02/27 01:15:40;;;;;;;15.52;12.63;;;21.60;94.60;;;;;;4159869;28;20046;-64
2022/02/27 01:17:45;;;;;;;15.82;12.23;;;21.70;94.60;;;;;;4160316;28;20088;-64
2022/02/27 01:19:50;;;;;;;16.83;11.60;;;21.80;94.50;;;;;;4160412;28;20435;-64
2022/02/27 01:22:00;;;;;;;15.25;11.82;;;21.80;94.30;;;;;;4160944;28;20065;-63
2022/02/27 01:24:11;;;;;;;14.20;10.80;;;21.90;94.00;;;;;;4158978;28;20045;-64
2022/02/27 01:26:16;;;;;;;14.60;11.45;;;21.90;93.90;;;;;;4159258;28;20049;-63
2022/02/27 01:28:22;;;;;;;16.48;12.48;;;22.00;93.80;;;;;;4158258;28;20029;-63
2022/02/27 01:30:27;;;;;;;17.20;11.55;;;21.90;93.80;;;;;;4160996;28;20069;-63
2022/02/27 01:32:31;;;;;;;16.13;11.48;;;21.90;93.70;;;;;;4160049;28;20039;-64
2022/02/27 01:34:40;;;;;;;14.10;11.43;;;22.00;93.70;;;;;;4159820;28;20128;-63
2022/02/27 01:36:44;;;;;;;15.98;11.30;;;22.00;93.60;;;;;;4158688;28;20083;-64
2022/02/27 01:38:49;;;;;;;19.80;12.45;;;22.10;93.50;;;;;;4158766;28;20099;-64
2022/02/27 01:40:55;;;;;;;14.82;11.18;;;22.20;93.50;;;;;;4160482;28;20044;-64
2022/02/27 01:43:01;;;;;;;14.75;11.20;;;22.20;93.40;;;;;;4158538;28;20053;-64
2022/02/27 01:45:06;;;;;;;15.10;11.38;;;22.30;93.70;;;;;;4158285;28;20054;-65
2022/02/27 01:47:20;;;;;;;15.30;10.70;;;22.40;93.70;;;;;;4161173;28;20049;-63
2022/02/27 01:49:26;;;;;;;20.90;11.27;;;22.40;93.40;;;;;;4159801;28;20055;-64
2022/02/27 01:51:36;;;;;;;15.32;11.05;;;22.40;93.30;;;;;;4190859;28;20145;-64
2022/02/27 01:53:45;;;;;;;13.10;10.25;;;22.50;93.20;;;;;;4158645;28;20053;-64
2022/02/27 01:55:51;;;;;;;12.27;9.98;;;22.50;93.10;;;;;;4192194;28;20044;-66
2022/02/27 01:57:55;;;;;;;12.90;10.10;;;22.50;93.20;;;;;;4158544;28;20132;-65
2022/02/27 02:00:06;;;;;;;13.10;10.18;;;22.50;93.20;;;;;;4158644;28;20140;-64
2022/02/27 02:02:15;;;;;;;14.45;10.27;;;22.50;93.10;;;;;;4165670;28;20054;-64
2022/02/27 02:04:24;;;;;;;14.68;10.20;;;22.60;92.90;;;;;;4146887;28;20049;-65
2022/02/27 02:06:31;;;;;;;15.30;10.27;;;22.60;92.80;;;;;;4169068;28;20037;-64
2022/02/27 02:08:35;;;;;;;15.63;10.50;;;22.60;92.80;;;;;;4161983;28;20037;-72
2022/02/27 02:10:44;;;;;;;14.65;10.15;;;22.70;92.70;;;;;;4159518;28;20042;-71
2022/02/27 02:12:51;;;;;;;13.30;10.43;;;22.80;92.60;;;;;;4157555;28;20053;-72
2022/02/27 02:14:56;;;;;;;15.55;11.07;;;22.90;92.80;;;;;;4161522;28;20112;-71
2022/02/27 02:17:01;;;;;;;14.57;11.32;;;22.90;92.60;;;;;;4161183;28;20707;-71
2022/02/27 02:19:12;;;;;;;13.63;10.63;;;22.90;92.50;;;;;;4144466;28;20107;-71
2022/02/27 02:21:17;;;;;;;14.50;10.60;;;22.90;92.50;;;;;;4162124;28;20049;-72
2022/02/27 02:23:22;;;;;;;12.13;9.93;;;23.00;92.50;;;;;;4161291;28;20124;-72
2022/02/27 02:25:30;;;;;;;15.48;9.85;;;23.10;92.20;;;;;;4157469;28;20049;-72
2022/02/27 02:27:35;;;;;;;11.52;9.38;;;23.10;92.20;;;;;;4157289;28;20050;-72
2022/02/27 02:29:42;;;;;;;12.00;9.50;;;23.10;92.30;;;;;;4160998;28;20049;-71
2022/02/27 02:31:51;;;;;;;12.00;8.38;;;23.20;92.30;;;;;;4158223;28;20137;-72
2022/02/27 02:33:56;;;;;;;10.95;8.35;;;23.30;92.00;;;;;;4157816;28;20124;-71
2022/02/27 02:36:01;;;;;;;10.13;8.38;;;23.30;91.80;;;;;;4160215;28;20045;-72
2022/02/27 02:38:09;;;;;;;13.00;9.52;;;23.40;91.50;;;;;;4163234;28;20061;-71
2022/02/27 02:40:14;;;;;;;9.82;8.38;;;23.40;91.50;;;;;;4158955;28;20144;-71
2022/02/27 02:42:18;;;;;;;12.18;8.43;;;23.40;91.30;;;;;;4158302;28;20057;-71
2022/02/27 02:44:30;;;;;;;10.65;8.15;;;23.50;91.40;;;;;;4159571;28;20123;-71
2022/02/27 02:46:38;;;;;;;16.33;8.50;;;23.50;91.50;;;;;;4153478;28;20164;-72
2022/02/27 02:48:42;;;;;;;11.88;7.97;;;23.60;91.70;;;;;;4158999;28;20037;-72
2022/02/27 02:51:11;;;;;;;11.57;8.15;;;23.60;91.70;;;;;;4162308;28;20047;-71
2022/02/27 02:53:16;;;;;;;10.73;7.82;;;23.70;91.60;;;;;;4159940;28;20132;-72
2022/02/27 02:55:20;;;;;;;10.10;8.05;;;23.80;91.50;;;;;;4140177;28;20492;-72
2022/02/27 02:57:30;;;;;;;12.65;8.40;;;23.80;91.40;;;;;;4160257;28;20052;-72
2022/02/27 02:59:35;;;;;;;10.48;7.95;;;23.90;91.30;;;;;;4158744;28;20057;-71
2022/02/27 03:01:39;;;;;;;9.68;7.68;;;24.00;91.20;;;;;;4160261;28;20077;-71
2022/02/27 03:03:47;;;;;;;9.43;7.05;;;24.00;91.20;;;;;;4159849;28;20053;-72
2022/02/27 03:05:51;;;;;;;11.95;7.97;;;24.10;91.00;;;;;;4160791;28;20049;-72
2022/02/27 03:07:56;;;;;;;10.73;7.18;;;24.20;90.70;;;;;;4160882;28;20400;-72
2022/02/27 03:10:07;;;;;;;9.65;7.97;;;24.10;90.90;;;;;;4165483;28;20041;-71
2022/02/27 03:12:12;;;;;;;11.13;7.60;;;24.10;90.40;;;;;;4160348;28;20087;-72
2022/02/27 03:14:17;;;;;;;10.63;7.70;;;24.10;90.60;;;;;;4164332;28;20041;-71
2022/02/27 03:16:27;;;;;;;10.48;7.25;;;24.20;90.60;;;;;;4148200;28;20092;-70
2022/02/27 03:18:39;;;;;;;9.05;7.10;;;24.30;90.80;;;;;;4179537;28;20095;-72
2022/02/27 03:20:46;;;;;;;9.85;7.30;;;24.30;90.70;;;;;;4178836;28;20053;-71
2022/02/27 03:23:01;;;;;;;10.18;7.85;;;24.40;90.40;;;;;;4163783;28;20072;-71
2022/02/27 03:25:09;;;;;;;10.18;7.18;;;24.40;90.00;;;;;;4168163;28;20045;-71
2022/02/27 03:27:18;;;;;;;9.63;7.00;;;24.50;90.20;;;;;;4167162;28;20041;-72
2022/02/27 03:29:24;;;;;;;8.80;6.85;;;24.40;90.20;;;;;;4156920;28;20099;-71
2022/02/27 03:31:28;;;;;;;10.50;6.72;;;24.50;90.00;;;;;;4158091;28;20045;-71
2022/02/27 03:33:33;;;;;;;8.75;6.40;;;24.50;88.80;;;;;;4159712;28;20155;-71
2022/02/27 03:35:40;;;;;;;7.57;6.32;;;24.50;89.50;;;;;;4159401;28;20732;-71
2022/02/27 03:37:50;;;;;;;11.88;7.07;;;24.60;89.50;;;;;;4161503;28;20071;-71
2022/02/27 03:39:54;;;;;;;9.07;6.65;;;24.60;89.60;;;;;;4158994;28;20037;-71
2022/02/27 03:42:01;;;;;;;12.95;8.68;;;24.70;89.70;;;;;;4158530;28;20056;-71
2022/02/27 03:44:05;;;;;;;10.70;7.50;;;24.80;89.90;;;;;;4160934;28;20128;-70
2022/02/27 03:46:11;;;;;;;9.07;6.70;;;24.80;89.90;;;;;;4157987;28;20045;-72
2022/02/27 03:48:17;;;;;;;11.80;6.65;;;24.80;89.50;;;;;;4159501;28;20084;-72
2022/02/27 03:50:22;;;;;;;7.05;6.22;;;24.90;88.40;;;;;;4158870;28;20044;-70
2022/02/27 03:52:26;;;;;;;8.80;6.70;;;24.90;88.50;;;;;;4158717;28;20103;-71
2022/02/27 03:54:35;;;;;;;8.65;6.18;;;25.00;89.10;;;;;;4157091;28;21013;-70
2022/02/27 03:56:39;;;;;;;7.72;6.35;;;25.00;88.70;;;;;;4159081;28;20067;-71
2022/02/27 03:58:44;;;;;;;6.85;6.15;;;25.10;88.80;;;;;;4161461;28;20060;-72
2022/02/27 04:00:52;;;;;;;9.25;7.13;;;25.10;86.90;;;;;;4159753;28;20063;-71
2022/02/27 04:02:57;;;;;;;7.25;6.00;;;25.10;87.40;;;;;;4161562;28;20131;-72
2022/02/27 04:05:03;;;;;;;9.25;6.00;;;25.10;87.30;;;;;;4160499;28;20095;-72
2022/02/27 04:07:12;;;;;;;14.70;6.28;;;25.20;87.50;;;;;;4161071;28;20412;-72
2022/02/27 04:09:16;;;;;;;6.88;5.30;;;25.30;88.20;;;;;;4159434;28;20099;-72
2022/02/27 04:11:20;;;;;;;8.55;6.55;;;25.30;87.60;;;;;;4159507;28;20467;-71
2022/02/27 04:13:25;;;;;;;7.53;5.47;;;25.40;87.80;;;;;;4156645;28;20053;-71
2022/02/27 04:15:30;;;;;;;8.38;5.95;;;25.50;86.70;;;;;;4170515;28;20123;-71
2022/02/27 04:17:35;;;;;;;10.10;6.38;;;25.60;86.70;;;;;;4166194;28;20494;-71
2022/02/27 04:19:44;;;;;;;7.47;6.10;;;25.50;87.40;;;;;;4166247;28;20045;-72
2022/02/27 04:21:48;;;;;;;10.93;7.68;;;25.60;86.60;;;;;;4166371;28;20061;-71
2022/02/27 04:23:53;;;;;;;11.68;7.60;;;25.50;87.30;;;;;;4159874;28;20045;-73
2022/02/27 04:26:02;;;;;;;12.43;7.90;;;25.70;87.90;;;;;;4161656;28;20069;-71
2022/02/27 04:28:07;;;;;;;11.70;7.97;;;25.70;87.50;;;;;;4163033;28;20049;-71
2022/02/27 04:30:12;;;;;;;11.15;7.55;;;25.80;88.60;;;;;;4163067;28;20065;-73
2022/02/27 04:32:18;;;;;;;12.85;7.47;;;25.80;87.90;;;;;;4162307;28;20045;-72
2022/02/27 04:34:23;;;;;;;15.23;8.63;;;25.80;87.10;;;;;;4159769;28;20408;-71
2022/02/27 04:36:27;;;;;;;13.75;9.57;;;25.90;87.80;;;;;;4156151;28;20045;-71
2022/02/27 04:38:34;;;;;;;11.57;7.85;;;25.80;87.30;;;;;;4155688;28;20045;-72
2022/02/27 04:40:39;;;;;;;11.50;7.93;;;25.90;86.70;;;;;;4158316;28;20057;-71
2022/02/27 04:42:44;;;;;;;10.27;7.25;;;25.80;86.40;;;;;;4159041;28;20092;-72
2022/02/27 04:44:54;;;;;;;15.65;8.32;;;26.00;86.30;;;;;;4156886;28;20512;-72
2022/02/27 04:46:59;;;;;;;14.98;9.18;;;26.10;86.70;;;;;;4157622;28;20127;-71
2022/02/27 04:49:03;;;;;;;14.52;9.70;;;26.10;85.90;;;;;;4159823;28;20144;-71
2022/02/27 04:51:12;;;;;;;13.25;9.45;;;26.30;85.40;;;;;;4158908;28;20037;-71
2022/02/27 04:53:19;;;;;;;13.32;8.93;;;26.30;85.10;;;;;;4161150;28;20448;-71
2022/02/27 04:55:23;;;;;;;14.27;9.13;;;26.30;83.70;;;;;;4158622;28;20042;-71
2022/02/27 04:57:31;;;;;;;12.70;8.50;;;26.30;83.50;;;;;;4141509;28;20056;-72
2022/02/27 04:59:37;;;;;;;12.35;8.50;;;26.30;83.90;;;;;;4158541;28;20408;-72
2022/02/27 05:01:42;;;;;;;10.95;8.48;;;26.40;84.30;;;;;;4159695;28;20253;-72
2022/02/27 05:03:52;;;;;;;11.10;7.20;;;26.40;84.30;;;;;;4157851;28;20057;-72
2022/02/27 05:05:58;;;;;;;8.98;6.88;;;26.40;83.50;;;;;;4157961;28;20107;-71
2022/02/27 05:08:02;;;;;;;10.05;6.45;;;26.40;83.20;;;;;;4159747;28;20136;-71
2022/02/27 05:10:12;;;;;;;11.25;7.47;;;26.50;83.40;;;;;;4157664;28;20045;-72
2022/02/27 05:12:16;;;;;;;13.23;7.82;;;26.50;83.80;;;;;;4140684;28;20076;-71
2022/02/27 05:14:21;;;;;;;8.13;6.57;;;26.60;83.80;;;;;;4157956;28;20053;-72
2022/02/27 05:16:29;;;;;;;8.55;6.38;;;26.60;82.40;;;;;;4158380;28;20083;-72
2022/02/27 05:18:34;;;;;;;12.00;6.47;;;26.70;82.20;;;;;;4161144;28;20053;-72
2022/02/27 05:20:38;;;;;;;9.60;6.75;;;26.70;82.40;;;;;;4158266;28;20041;-71
2022/02/27 05:22:47;;;;;;;11.13;7.18;;;26.70;83.10;;;;;;4156805;28;20568;-72
2022/02/27 05:24:52;;;;;;;11.23;7.13;;;26.70;83.10;;;;;;4159698;28;20033;-71
2022/02/27 05:26:59;;;;;;;10.60;7.20;;;26.80;83.90;;;;;;4154632;28;20049;-71
2022/02/27 05:29:05;;;;;;;10.68;6.63;;;26.80;83.90;;;;;;4157740;28;20136;-71
2022/02/27 05:31:10;;;;;;;8.35;6.32;;;26.90;84.00;;;;;;4157207;28;20050;-71
2022/02/27 05:33:14;;;;;;;8.40;6.55;;;27.00;82.60;;;;;;4157972;28;20045;-71
2022/02/27 05:35:21;;;;;;;8.45;6.45;;;27.00;82.00;;;;;;4159024;28;20079;-71
2022/02/27 05:37:26;;;;;;;7.70;6.05;;;27.10;81.40;;;;;;4160215;28;20388;-70
2022/02/27 05:39:30;;;;;;;7.88;6.57;;;27.20;81.10;;;;;;4148923;28;20095;-70
2022/02/27 05:41:37;;;;;;;11.65;7.35;;;27.10;82.00;;;;;;4158204;28;20491;-71
2022/02/27 05:43:42;;;;;;;10.20;6.97;;;27.20;82.50;;;;;;4159578;28;20068;-70
2022/02/27 05:45:46;;;;;;;10.38;7.00;;;27.20;82.50;;;;;;4156758;28;20504;-71
2022/02/27 05:47:53;;;;;;;11.10;7.28;;;27.20;83.10;;;;;;4161380;28;20049;-70
2022/02/27 05:49:58;;;;;;;11.50;7.50;;;27.30;83.30;;;;;;4164919;28;20045;-70
2022/02/27 05:52:03;;;;;;;9.65;6.55;;;27.40;82.80;;;;;;4165083;28;20443;-71
2022/02/27 05:54:11;;;;;;;9.85;6.13;;;27.50;80.00;;;;;;4162270;28;20065;-71
2022/02/27 05:56:16;;;;;;;10.50;6.63;;;27.70;77.50;;;;;;4157371;28;20046;-69
2022/02/27 05:58:20;;;;;;;8.48;6.50;;;27.60;79.00;;;;;;4160247;28;20037;-70
2022/02/27 06:00:28;;;;;;;8.85;6.97;;;27.90;78.00;;;;;;4164804;28;20720;-71
2022/02/27 06:02:32;;;;;;;7.80;6.47;;;27.80;78.80;;;;;;4167183;28;20136;-70
2022/02/27 06:04:40;;;;;;;11.05;6.50;;;27.80;78.10;;;;;;4159180;28;20084;-70
2022/02/27 06:06:49;;;;;;;10.32;6.40;;;27.70;78.00;;;;;;4162790;28;20416;-69
2022/02/27 06:08:54;;;;;;;6.97;6.03;;;27.90;78.10;;;;;;4161669;28;20053;-70
2022/02/27 06:10:58;;;;;;;9.02;5.80;;;27.80;78.70;;;;;;4158372;28;20061;-69
2022/02/27 06:13:07;;;;;;;8.55;5.72;;;27.80;78.80;;;;;;4159903;28;20095;-70
2022/02/27 06:15:11;;;;;;;8.23;6.40;;;27.90;79.30;;;;;;4164997;28;20045;-70
2022/02/27 06:17:18;;;;;;;7.25;6.13;;;27.90;78.90;;;;;;4162886;28;20041;-69
2022/02/27 06:19:24;;;;;;;9.27;6.20;;;27.90;78.60;;;;;;4162789;28;20037;-69
2022/02/27 06:21:29;;;;;;;8.73;6.13;;;28.10;78.20;;;;;;4159241;28;20049;-70
2022/02/27 06:23:40;;;;;;;13.85;6.68;;;28.10;77.70;;;;;;4160888;28;20140;-69
2022/02/27 06:25:46;;;;;;;10.55;6.22;;;28.10;77.60;;;;;;4161408;28;20085;-69
2022/02/27 06:27:56;;;;;;;10.40;6.65;;;28.10;77.50;;;;;;4162853;28;20045;-70
2022/02/27 06:30:05;;;;;;;8.30;6.70;;;28.00;77.50;;;;;;4154709;28;20369;-72
2022/02/27 06:32:12;;;;;;;11.10;7.05;;;28.10;77.00;;;;;;4163848;28;20037;-71
2022/02/27 06:34:18;;;;;;;10.48;6.78;;;28.20;75.70;;;;;;4158682;28;20049;-71
2022/02/27 06:36:25;;;;;;;8.85;6.72;;;28.20;76.60;;;;;;4165057;28;20128;-70
2022/02/27 06:38:29;;;;;;;10.60;7.03;;;28.20;76.20;;;;;;4159678;28;20048;-70
2022/02/27 06:40:34;;;;;;;9.77;6.75;;;28.20;75.60;;;;;;4161353;28;20060;-70
2022/02/27 06:42:42;;;;;;;9.77;7.35;;;28.30;75.40;;;;;;4158695;28;21171;-71
2022/02/27 06:44:49;;;;;;;7.43;6.32;;;28.40;75.70;;;;;;4160882;28;20056;-69
2022/02/27 06:46:53;;;;;;;11.30;7.00;;;28.40;75.40;;;;;;4158252;28;20510;-70
2022/02/27 06:48:59;;;;;;;10.27;7.03;;;28.30;75.40;;;;;;4159038;28;20578;-69
2022/02/27 06:51:06;;;;;;;14.27;7.45;;;28.40;75.30;;;;;;4169057;28;20055;-70
2022/02/27 06:53:15;;;;;;;9.20;7.38;;;28.40;75.90;;;;;;4158161;28;20155;-69
2022/02/27 06:55:21;;;;;;;9.00;6.70;;;28.40;75.50;;;;;;4159455;28;20049;-70
2022/02/27 06:57:28;;;;;;;9.68;7.00;;;28.40;75.60;;;;;;4163736;28;20111;-69
2022/02/27 06:59:33;;;;;;;11.40;7.30;;;28.30;76.10;;;;;;4158605;28;20052;-69
2022/02/27 07:01:39;;;;;;;11.82;7.47;;;28.40;75.60;;;;;;4158084;28;20144;-69
2022/02/27 07:03:47;;;;;;;9.70;7.20;;;28.50;74.70;;;;;;4160789;28;20060;-69
2022/02/27 07:05:52;;;;;;;9.40;6.85;;;28.50;73.90;;;;;;4167057;28;20046;-69
2022/02/27 07:07:58;;;;;;;10.57;7.18;;;28.50;74.00;;;;;;4160888;28;20111;-70
2022/02/27 07:10:05;;;;;;;11.40;7.68;;;28.60;74.50;;;;;;4158062;28;20092;-69
2022/02/27 07:12:10;;;;;;;8.38;7.10;;;28.50;74.30;;;;;;4162732;28;20049;-69
2022/02/27 07:14:17;;;;;;;9.88;6.93;;;28.60;73.90;;;;;;4156940;28;20100;-70
2022/02/27 07:16:24;;;;;;;8.82;7.43;;;28.60;74.50;;;;;;4157234;28;20140;-69
2022/02/27 07:18:29;;;;;;;7.72;6.90;;;28.70;74.90;;;;;;4157429;28;20057;-69
2022/02/27 07:20:35;;;;;;;10.68;7.60;;;28.70;73.40;;;;;;4160413;28;20053;-69
2022/02/27 07:22:41;;;;;;;11.20;7.90;;;28.70;74.00;;;;;;4158494;28;20064;-69
2022/02/27 07:24:46;;;;;;;14.23;9.52;;;28.60;74.00;;;;;;4159966;28;20053;-70
2022/02/27 07:26:53;;;;;;;14.15;10.30;;;28.60;73.30;;;;;;4157472;28;20050;-70
2022/02/27 07:29:04;;;;;;;13.18;8.55;;;28.70;74.10;;;;;;4157587;28;20056;-69
2022/02/27 07:31:10;;;;;;;9.40;7.78;;;28.70;73.50;;;;;;4163611;28;20470;-69
2022/02/27 07:33:16;;;;;;;14.90;7.93;;;28.80;72.90;;;;;;4159419;28;20045;-69
2022/02/27 07:35:20;;;;;;;10.15;7.22;;;28.80;72.00;;;;;;4160495;28;20049;-69
2022/02/27 07:37:26;;;;;;;8.40;7.13;;;28.90;72.00;;;;;;4166567;28;20053;-69
2022/02/27 07:39:32;;;;;;;9.73;7.20;;;28.80;72.60;;;;;;4166157;28;20048;-69
2022/02/27 07:41:39;;;;;;;9.52;7.70;;;28.80;73.20;;;;;;4160468;28;20110;-69
2022/02/27 07:43:45;;;;;;;10.52;7.72;;;28.90;72.70;;;;;;4162731;28;20048;-70
2022/02/27 07:45:56;;;;;;;11.30;7.10;;;28.90;72.90;;;;;;4157845;28;20140;-69
2022/02/27 07:48:02;;;;;;;9.15;7.32;;;28.80;72.70;;;;;;4165988;28;20069;-69
2022/02/27 07:50:07;;;;;;;9.38;7.30;;;28.80;73.90;;;;;;4161076;28;20053;-70
2022/02/27 07:52:14;;;;;;;11.05;7.70;;;28.90;73.90;;;;;;4160067;28;20038;-70
2022/02/27 07:54:21;;;;;;;10.38;7.47;;;28.90;73.20;;;;;;4166847;28;20054;-69
2022/02/27 07:56:25;;;;;;;10.43;7.60;;;29.00;72.70;;;;;;4164097;28;20037;-68
2022/02/27 07:58:32;;;;;;;9.20;7.55;;;29.00;71.70;;;;;;4161822;28;20507;-69
2022/02/27 08:00:38;;;;;;;9.63;7.53;;;29.00;71.20;;;;;;4163496;28;20094;-70
2022/02/27 08:02:43;;;;;;;9.63;7.72;;;28.90;72.00;;;;;;4160831;28;20172;-70
2022/02/27 08:04:47;;;;;;;11.85;7.55;;;29.00;72.40;;;;;;4161705;28;20052;-71
2022/02/27 08:06:54;;;;;;;9.90;7.85;;;29.00;73.60;;;;;;4165005;28;20049;-71
2022/02/27 08:09:01;;;;;;;10.32;7.60;;;29.10;72.30;;;;;;4164375;28;20077;-71
2022/02/27 08:11:07;;;;;;;12.27;7.97;;;29.00;72.40;;;;;;4161957;28;20033;-69
2022/02/27 08:13:12;;;;;;;12.07;7.30;;;29.10;72.40;;;;;;4167255;28;20068;-71
2022/02/27 08:15:16;;;;;;;11.48;7.60;;;29.20;73.10;;;;;;4162017;28;20062;-70
2022/02/27 08:17:23;;;;;;;11.05;8.30;;;29.10;71.60;;;;;;4166193;28;20575;-70
2022/02/27 08:19:27;;;;;;;11.30;7.88;;;29.10;72.30;;;;;;4170092;28;20095;-70
2022/02/27 08:21:32;;;;;;;10.73;7.78;;;29.10;72.30;;;;;;4160293;28;20046;-70
2022/02/27 08:23:38;;;;;;;13.77;7.97;;;29.10;71.30;;;;;;4160660;28;20554;-70
2022/02/27 08:25:48;;;;;;;13.68;8.90;;;29.10;71.10;;;;;;4160033;28;20057;-70
2022/02/27 08:27:52;;;;;;;12.15;8.68;;;29.10;71.80;;;;;;4170255;28;20045;-70
2022/02/27 08:30:01;;;;;;;10.13;7.85;;;29.20;72.40;;;;;;4163483;28;20460;-70
2022/02/27 08:32:06;;;;;;;11.88;8.90;;;29.30;71.70;;;;;;4161560;28;20057;-70
2022/02/27 08:34:12;;;;;;;12.93;9.20;;;29.20;72.10;;;;;;4165057;28;20071;-70
2022/02/27 08:36:20;;;;;;;11.90;8.82;;;29.20;72.10;;;;;;4160063;28;20041;-71
2022/02/27 08:38:26;;;;;;;10.77;8.43;;;29.20;71.70;;;;;;4159799;28;20039;-70
2022/02/27 08:40:32;;;;;;;14.32;9.20;;;29.20;71.30;;;;;;4158936;28;20735;-70
2022/02/27 08:42:38;;;;;;;11.95;8.45;;;29.30;71.60;;;;;;4158982;28;20045;-70
2022/02/27 08:44:44;;;;;;;11.35;8.75;;;29.30;72.40;;;;;;4159260;28;20080;-71
2022/02/27 08:46:49;;;;;;;11.10;8.75;;;29.30;71.80;;;;;;4158677;28;20058;-72
2022/02/27 08:48:56;;;;;;;11.82;8.95;;;29.40;71.30;;;;;;4163846;28;20393;-71
2022/02/27 08:51:03;;;;;;;14.02;9.15;;;29.40;71.20;;;;;;4168467;28;20139;-71
2022/02/27 08:53:08;;;;;;;11.98;9.07;;;29.40;71.90;;;;;;4160558;28;20463;-71
2022/02/27 08:55:17;;;;;;;10.70;8.32;;;29.40;72.20;;;;;;4158711;28;20060;-71
2022/02/27 08:57:24;;;;;;;10.57;8.35;;;29.40;71.90;;;;;;4158774;28;20657;-70
2022/02/27 08:59:29;;;;;;;12.98;9.20;;;29.40;71.90;;;;;;4162739;28;20050;-70
2022/02/27 09:01:35;;;;;;;11.13;8.95;;;29.30;71.90;;;;;;4159855;28;20049;-70
2022/02/27 09:03:39;;;;;;;12.15;9.00;;;29.40;71.00;;;;;;4160025;28;20064;-70
2022/02/27 09:05:44;;;;;;;13.68;8.95;;;29.40;71.20;;;;;;4163486;28;20137;-70
2022/02/27 09:07:50;;;;;;;12.65;9.43;;;29.40;71.70;;;;;;4158862;28;20136;-70
2022/02/27 09:09:54;;;;;;;11.15;9.57;;;29.30;71.80;;;;;;4160529;28;21297;-71
2022/02/27 09:11:59;;;;;;;12.45;9.40;;;29.30;72.30;;;;;;4164878;28;20057;-71
2022/02/27 09:14:03;;;;;;;12.60;9.63;;;29.30;71.80;;;;;;4159714;28;20064;-71
2022/02/27 09:16:10;;;;;;;12.73;9.65;;;29.30;72.40;;;;;;4159407;28;20649;-70
2022/02/27 09:18:15;;;;;;;11.52;9.95;;;29.30;72.40;;;;;;4159877;28;20614;-72
2022/02/27 09:20:21;;;;;;;11.35;8.73;;;29.30;72.20;;;;;;4172770;28;20114;-70
2022/02/27 09:22:27;;;;;;;12.02;9.15;;;29.40;72.10;;;;;;4158629;28;20052;-72
2022/02/27 09:24:32;;;;;;;12.57;9.15;;;29.30;72.50;;;;;;4165895;28;20038;-72
2022/02/27 09:26:39;;;;;;;12.55;9.00;;;29.30;72.40;;;;;;4161496;28;20056;-73
2022/02/27 09:28:44;;;;;;;13.05;9.43;;;29.20;71.20;;;;;;4164244;28;20060;-71
2022/02/27 09:30:51;;;;;;;11.02;9.25;;;29.30;72.00;;;;;;4158977;28;20555;-71
2022/02/27 09:32:57;;;;;;;13.52;9.32;;;29.30;72.00;;;;;;4160793;28;20084;-71
2022/02/27 09:35:05;;;;;;;12.18;9.20;;;29.30;71.80;;;;;;4165122;28;20476;-72
2022/02/27 09:37:10;;;;;;;11.85;9.45;;;29.40;71.90;;;;;;4158256;28;20623;-72
2022/02/27 09:39:17;;;;;;;11.40;9.20;;;29.30;72.50;;;;;;4158588;28;20041;-71
2022/02/27 09:41:24;;;;;;;13.35;9.55;;;29.30;72.50;;;;;;4158977;28;20061;-71
2022/02/27 09:43:30;;;;;;;13.25;10.05;;;29.30;72.10;;;;;;4159974;28;20046;-73
2022/02/27 09:45:36;;;;;;;10.43;9.32;;;29.30;72.10;;;;;;4167789;28;20057;-72
2022/02/27 09:47:43;;;;;;;11.68;9.25;;;29.20;72.30;;;;;;4161809;28;20109;-72
2022/02/27 09:49:47;;;;;;;10.88;8.90;;;29.20;72.80;;;;;;4159760;28;20471;-72
2022/02/27 09:51:55;;;;;;;12.00;9.73;;;29.10;72.00;;;;;;4166950;28;20060;-71
2022/02/27 09:54:01;;;;;;;12.82;10.30;;;29.10;72.10;;;;;;4160109;28;20095;-71
2022/02/27 09:56:06;;;;;;;13.15;10.05;;;29.00;72.80;;;;;;4162545;28;20084;-71
2022/02/27 09:58:12;;;;;;;13.75;10.57;;;29.00;73.00;;;;;;4161384;28;20388;-72
2022/02/27 10:00:19;;;;;;;12.10;10.00;;;29.00;73.40;;;;;;4159312;28;20114;-71
2022/02/27 10:02:23;;;;;;;14.07;10.18;;;29.00;73.20;;;;;;4160323;28;20050;-71
2022/02/27 10:04:36;;;;;;;15.13;9.90;;;29.00;72.60;;;;;;4158501;28;20051;-73
2022/02/27 10:06:49;;;;;;;14.23;10.60;;;28.90;72.90;;;;;;4159390;28;20053;-70
2022/02/27 10:08:56;;;;;;;15.90;11.10;;;28.90;73.50;;;;;;4160421;28;20059;-70
2022/02/27 10:11:03;;;;;;;15.40;10.70;;;29.00;73.40;;;;;;4156197;28;20288;-72
2022/02/27 10:13:09;;;;;;;13.55;10.10;;;28.90;72.60;;;;;;4159143;28;20427;-72
2022/02/27 10:15:15;;;;;;;12.32;10.18;;;28.90;73.10;;;;;;4161247;28;20120;-71
2022/02/27 10:17:30;;;;;;;16.80;11.13;;;28.90;72.70;;;;;;4160420;28;20416;-71
2022/02/27 10:19:41;;;;;;;15.57;10.77;;;28.90;73.20;;;;;;4158699;28;20087;-71
2022/02/27 10:21:46;;;;;;;11.88;10.07;;;28.90;74.40;;;;;;4157578;28;20923;-71
2022/02/27 10:24:08;;;;;;;15.35;11.15;;;28.80;74.00;;;;;;4159258;28;20567;-71
2022/02/27 10:26:22;;;;;;;11.88;10.23;;;28.80;74.30;;;;;;4159863;28;20095;-71
2022/02/27 10:28:29;;;;;;;14.57;10.65;;;28.90;74.20;;;;;;4156218;28;20053;-71
2022/02/27 10:30:37;;;;;;;15.30;10.88;;;28.80;74.10;;;;;;4159099;28;20047;-72
2022/02/27 10:32:48;;;;;;;14.18;10.98;;;28.80;74.80;;;;;;4162451;28;20068;-70
2022/02/27 10:34:52;;;;;;;13.95;10.80;;;28.80;74.60;;;;;;4159412;28;20049;-71
2022/02/27 10:37:06;;;;;;;17.90;11.52;;;28.80;74.40;;;;;;4163011;28;20041;-70
2022/02/27 10:39:12;;;;;;;14.80;10.93;;;28.80;74.70;;;;;;4158967;28;20053;-71
2022/02/27 10:41:21;;;;;;;12.68;10.65;;;28.80;74.90;;;;;;4169071;28;20076;-71
2022/02/27 10:43:27;;;;;;;16.17;11.05;;;28.80;74.60;;;;;;4158821;28;20074;-72
2022/02/27 10:45:34;;;;;;;17.85;11.10;;;28.70;74.80;;;;;;4157021;28;20057;-70
2022/02/27 10:47:39;;;;;;;19.05;11.25;;;28.70;76.10;;;;;;4162780;28;20458;-69
2022/02/27 10:49:46;;;;;;;15.40;11.70;;;28.60;75.80;;;;;;4162689;28;20438;-69